createdAt,value
2023-03-05T00:00:15.537Z,55.98
2023-03-05T00:02:42.024Z,55.95
2023-03-05T00:05:11.458Z,55.53
2023-03-05T00:07:37.856Z,56.76
2023-03-05T00:10:04.369Z,56.87
2023-03-05T00:12:30.780Z,56.30
2023-03-05T00:14:57.216Z,54.73
2023-03-05T00:17:23.633Z,54.59
2023-03-05T00:19:50.085Z,54.82
2023-03-05T00:22:16.551Z,54.30
2023-03-05T00:24:42.989Z,54.51
2023-03-05T00:27:09.417Z,54.23
2023-03-05T00:29:35.905Z,54.18
2023-03-05T00:32:02.439Z,54.77
2023-03-05T00:34:28.974Z,54.29
2023-03-05T00:36:55.370Z,54.50
2023-03-05T00:39:21.839Z,54.61
2023-03-05T00:41:48.276Z,54.88
2023-03-05T00:44:14.724Z,54.64
2023-03-05T00:46:41.559Z,54.50
2023-03-05T00:49:08.045Z,54.31
2023-03-05T00:51:34.481Z,54.30
2023-03-05T00:54:00.900Z,53.83
2023-03-05T00:56:27.301Z,54.15
2023-03-05T00:58:53.684Z,54.21
2023-03-05T01:01:20.218Z,53.81
2023-03-05T01:03:46.617Z,53.70
2023-03-05T01:06:13.019Z,54.14
2023-03-05T01:08:39.452Z,55.10
2023-03-05T01:11:05.911Z,55.47
2023-03-05T01:13:34.997Z,56.31
2023-03-05T01:16:01.486Z,57.37
2023-03-05T01:18:27.974Z,57.20
2023-03-05T01:20:54.576Z,56.46
2023-03-05T01:23:20.924Z,55.91
2023-03-05T01:25:47.290Z,55.41
2023-03-05T01:28:13.623Z,55.02
2023-03-05T01:30:40.047Z,56.15
2023-03-05T01:33:06.458Z,55.74
2023-03-05T01:35:33.016Z,55.68
2023-03-05T01:37:59.435Z,56.31
2023-03-05T01:40:25.848Z,55.80
2023-03-05T01:42:52.253Z,56.14
2023-03-05T01:45:18.670Z,55.87
2023-03-05T01:47:45.111Z,55.44
2023-03-05T01:50:12.596Z,54.93
2023-03-05T01:52:39.140Z,54.71
2023-03-05T01:55:05.538Z,55.13
2023-03-05T01:57:31.925Z,54.84
2023-03-05T01:59:58.290Z,54.34
2023-03-05T02:02:24.745Z,54.22
2023-03-05T02:04:51.220Z,54.73
2023-03-05T02:07:17.631Z,55.00
2023-03-05T02:09:43.998Z,54.70
2023-03-05T02:12:10.451Z,54.69
2023-03-05T02:14:36.792Z,54.91
2023-03-05T02:17:03.179Z,54.49
2023-03-05T02:19:29.721Z,54.35
2023-03-05T02:21:56.137Z,54.63
2023-03-05T02:24:22.539Z,54.26
2023-03-05T02:26:48.901Z,53.90
2023-03-05T02:29:16.022Z,54.21
2023-03-05T02:31:42.506Z,54.65
2023-03-05T02:34:08.931Z,54.72
2023-03-05T02:36:35.289Z,54.19
2023-03-05T02:39:02.663Z,54.83
2023-03-05T02:41:29.120Z,54.57
2023-03-05T02:43:55.459Z,54.30
2023-03-05T02:46:21.903Z,54.64
2023-03-05T02:48:48.483Z,54.52
2023-03-05T02:51:14.940Z,55.01
2023-03-05T02:53:41.332Z,54.61
2023-03-05T02:56:07.753Z,55.38
2023-03-05T02:58:34.397Z,54.83
2023-03-05T03:01:00.808Z,54.83
2023-03-05T03:03:27.223Z,54.48
2023-03-05T03:05:53.641Z,54.91
2023-03-05T03:08:20.223Z,54.51
2023-03-05T03:10:46.580Z,54.93
2023-03-05T03:13:12.954Z,54.94
2023-03-05T03:15:39.330Z,54.82
2023-03-05T03:18:05.718Z,55.14
2023-03-05T03:20:32.138Z,54.48
2023-03-05T03:22:58.504Z,54.87
2023-03-05T03:25:24.938Z,54.76
2023-03-05T03:27:51.481Z,54.89
2023-03-05T03:30:17.890Z,55.62
2023-03-05T03:32:44.310Z,56.38
2023-03-05T03:35:10.700Z,57.07
2023-03-05T03:37:37.277Z,57.77
2023-03-05T03:40:03.846Z,58.77
2023-03-05T03:42:30.328Z,59.43
2023-03-05T03:44:56.691Z,58.91
2023-03-05T03:47:23.048Z,58.78
2023-03-05T03:49:49.437Z,58.82
2023-03-05T03:52:15.803Z,58.50
2023-03-05T03:54:42.247Z,57.42
2023-03-05T03:57:08.625Z,56.90
2023-03-05T03:59:35.022Z,56.19
2023-03-05T04:02:01.437Z,56.26
2023-03-05T04:04:27.847Z,56.19
2023-03-05T04:06:54.260Z,56.50
2023-03-05T04:09:20.671Z,56.43
2023-03-05T04:11:47.071Z,56.00
2023-03-05T04:14:13.426Z,56.19
2023-03-05T04:16:39.766Z,56.31
2023-03-05T04:19:06.209Z,56.82
2023-03-05T04:21:32.635Z,56.85
2023-03-05T04:23:59.076Z,56.97
2023-03-05T04:26:25.574Z,57.01
2023-03-05T04:28:51.997Z,57.31
2023-03-05T04:31:18.441Z,57.33
2023-03-05T04:33:44.849Z,57.62
2023-03-05T04:36:11.265Z,57.46
2023-03-05T04:38:37.731Z,56.84
2023-03-05T04:41:04.107Z,57.47
2023-03-05T04:43:30.560Z,57.16
2023-03-05T04:45:56.994Z,57.07
2023-03-05T04:48:23.500Z,57.15
2023-03-05T04:50:49.858Z,56.86
2023-03-05T04:53:16.200Z,57.15
2023-03-05T04:55:42.551Z,57.66
2023-03-05T04:58:08.948Z,57.76
2023-03-05T05:00:35.357Z,57.65
2023-03-05T05:03:01.997Z,57.84
2023-03-05T05:05:28.396Z,57.14
2023-03-05T05:07:54.998Z,57.28
2023-03-05T05:10:21.420Z,57.70
2023-03-05T05:12:47.781Z,57.72
2023-03-05T05:15:14.174Z,57.91
2023-03-05T05:17:40.552Z,57.87
2023-03-05T05:20:06.926Z,57.86
2023-03-05T05:22:33.316Z,58.05
2023-03-05T05:24:59.662Z,58.09
2023-03-05T05:27:26.055Z,58.07
2023-03-05T05:29:52.419Z,58.20
2023-03-05T05:32:18.870Z,58.95
2023-03-05T05:34:45.250Z,58.27
2023-03-05T05:37:11.851Z,57.94
2023-03-05T05:39:38.399Z,58.32
2023-03-05T05:42:04.742Z,58.39
2023-03-05T05:44:31.099Z,58.50
2023-03-05T05:46:57.529Z,58.41
2023-03-05T05:49:23.872Z,57.84
2023-03-05T05:51:50.242Z,58.37
2023-03-05T05:54:16.662Z,58.04
2023-03-05T05:56:43.065Z,58.41
2023-03-05T05:59:09.737Z,58.01
2023-03-05T06:01:36.193Z,57.70
2023-03-05T06:04:02.744Z,57.78
2023-03-05T06:06:29.169Z,58.18
2023-03-05T06:08:55.574Z,58.43
2023-03-05T06:11:21.981Z,58.65
2023-03-05T06:13:48.357Z,59.05
2023-03-05T06:16:14.823Z,59.43
2023-03-05T06:18:41.252Z,59.53
2023-03-05T06:21:07.604Z,60.25
2023-03-05T06:23:33.958Z,60.15
2023-03-05T06:26:00.336Z,60.21
2023-03-05T06:28:26.720Z,59.66
2023-03-05T06:30:53.109Z,59.46
2023-03-05T06:33:21.674Z,59.42
2023-03-05T06:35:48.051Z,59.12
2023-03-05T06:38:14.467Z,58.83
2023-03-05T06:40:41.027Z,58.58
2023-03-05T06:43:07.567Z,58.83
2023-03-05T06:45:33.970Z,58.78
2023-03-05T06:48:00.428Z,58.84
2023-03-05T06:50:26.831Z,58.81
2023-03-05T06:52:53.215Z,58.59
2023-03-05T06:55:19.641Z,58.85
2023-03-05T06:57:46.017Z,58.37
2023-03-05T07:00:12.448Z,59.22
2023-03-05T07:02:41.263Z,59.26
2023-03-05T07:05:07.808Z,59.46
2023-03-05T07:07:34.190Z,59.71
2023-03-05T07:10:00.777Z,59.50
2023-03-05T07:12:27.219Z,59.41
2023-03-05T07:14:53.686Z,59.79
2023-03-05T07:17:20.135Z,59.57
2023-03-05T07:19:46.578Z,60.20
2023-03-05T07:22:12.945Z,60.96
2023-03-05T07:24:39.377Z,61.16
2023-03-05T07:27:05.780Z,61.68
2023-03-05T07:29:32.136Z,61.83
2023-03-05T07:32:01.063Z,61.79
2023-03-05T07:34:27.741Z,60.99
2023-03-05T07:36:54.243Z,60.30
2023-03-05T07:39:20.658Z,60.77
2023-03-05T07:41:47.009Z,61.14
2023-03-05T07:44:13.365Z,60.73
2023-03-05T07:46:39.840Z,60.30
2023-03-05T07:49:06.283Z,60.02
2023-03-05T07:51:32.626Z,60.47
2023-03-05T07:53:58.981Z,60.41
2023-03-05T07:56:25.316Z,61.16
2023-03-05T07:58:51.691Z,61.53
2023-03-05T08:01:18.058Z,62.11
2023-03-05T08:03:47.526Z,62.30
2023-03-05T08:06:14.010Z,61.58
2023-03-05T08:08:40.457Z,61.78
2023-03-05T08:11:09.232Z,61.27
2023-03-05T08:13:35.854Z,61.04
2023-03-05T08:16:04.652Z,60.34
2023-03-05T08:18:35.696Z,60.13
2023-03-05T08:21:05.499Z,60.21
2023-03-05T08:23:31.921Z,59.31
2023-03-05T08:25:58.391Z,59.44
2023-03-05T08:28:26.336Z,59.50
2023-03-05T08:30:52.721Z,59.25
2023-03-05T08:33:25.930Z,59.06
2023-03-05T08:35:52.387Z,58.39
2023-03-05T08:38:21.014Z,58.59
2023-03-05T08:40:50.576Z,58.48
2023-03-05T08:43:23.927Z,57.37
2023-03-05T08:45:50.335Z,57.22
2023-03-05T08:48:16.711Z,57.01
2023-03-05T08:50:43.079Z,56.40
2023-03-05T08:53:09.480Z,55.78
2023-03-05T08:55:35.948Z,55.68
2023-03-05T08:58:02.396Z,55.68
2023-03-05T09:00:28.781Z,56.66
2023-03-05T09:02:55.342Z,56.93
2023-03-05T09:05:21.862Z,56.66
2023-03-05T09:07:48.258Z,56.60
2023-03-05T09:10:14.693Z,57.08
2023-03-05T09:12:41.085Z,58.19
2023-03-05T09:15:07.560Z,58.37
2023-03-05T09:17:33.952Z,57.44
2023-03-05T09:20:00.390Z,57.60
2023-03-05T09:22:26.808Z,58.09
2023-03-05T09:24:53.237Z,57.06
2023-03-05T09:27:19.682Z,57.94
2023-03-05T09:29:50.918Z,58.15
2023-03-05T09:32:17.400Z,57.83
2023-03-05T09:35:10.703Z,58.46
2023-03-05T09:37:33.913Z,58.29
2023-03-05T09:40:00.342Z,57.83
2023-03-05T09:42:26.746Z,57.57
2023-03-05T09:44:54.827Z,57.58
2023-03-05T09:47:21.361Z,57.68
2023-03-05T09:49:47.884Z,58.02
2023-03-05T09:52:14.356Z,58.55
2023-03-05T09:54:40.797Z,58.18
2023-03-05T09:57:07.245Z,58.75
2023-03-05T09:59:35.701Z,58.61
2023-03-05T10:02:02.101Z,58.28
2023-03-05T10:04:28.609Z,58.59
2023-03-05T10:06:57.243Z,58.50
2023-03-05T10:09:23.741Z,59.12
2023-03-05T10:11:51.167Z,59.43
2023-03-05T10:14:17.689Z,59.27
2023-03-05T10:16:44.274Z,59.48
2023-03-05T10:19:12.990Z,59.13
2023-03-05T10:21:42.179Z,58.98
2023-03-05T10:24:08.637Z,58.96
2023-03-05T10:26:35.122Z,58.94
2023-03-05T10:29:01.609Z,59.47
2023-03-05T10:31:28.187Z,59.05
2023-03-05T10:33:54.652Z,59.74
2023-03-05T10:36:21.395Z,58.64
2023-03-05T10:38:47.964Z,58.74
2023-03-05T10:41:14.463Z,59.63
2023-03-05T10:43:40.880Z,59.86
2023-03-05T10:46:07.397Z,59.25
2023-03-05T10:48:33.888Z,59.24
2023-03-05T10:51:00.384Z,58.72
2023-03-05T10:53:26.859Z,58.88
2023-03-05T10:55:53.271Z,58.56
2023-03-05T10:58:22.547Z,58.55
2023-03-05T11:00:50.789Z,58.79
2023-03-05T11:03:23.317Z,58.17
2023-03-05T11:05:49.747Z,58.74
2023-03-05T11:08:18.916Z,58.00
2023-03-05T11:10:45.363Z,58.53
2023-03-05T11:13:11.816Z,58.33
2023-03-05T11:15:38.351Z,58.58
2023-03-05T11:18:04.683Z,58.40
2023-03-05T11:20:31.117Z,58.44
2023-03-05T11:22:57.525Z,58.99
2023-03-05T11:25:23.982Z,59.14
2023-03-05T11:27:51.998Z,59.82
2023-03-05T11:30:20.154Z,59.36
2023-03-05T11:32:46.594Z,60.65
2023-03-05T11:35:13.024Z,59.46
2023-03-05T11:37:39.512Z,59.06
2023-03-05T11:40:05.946Z,58.11
2023-03-05T11:42:33.725Z,58.95
2023-03-05T11:45:00.284Z,58.79
2023-03-05T11:47:26.694Z,59.53
2023-03-05T11:49:53.243Z,59.26
2023-03-05T11:52:20.691Z,60.32
2023-03-05T11:54:47.112Z,59.14
2023-03-05T11:57:13.551Z,59.63
2023-03-05T11:59:40.112Z,59.79
2023-03-05T12:02:06.574Z,59.85
2023-03-05T12:04:33.183Z,59.02
2023-03-05T12:06:59.578Z,58.52
2023-03-05T12:09:26.086Z,59.11
2023-03-05T12:11:53.739Z,59.17
2023-03-05T12:14:20.252Z,58.91
2023-03-05T12:16:46.667Z,59.22
2023-03-05T12:19:13.069Z,58.36
2023-03-05T12:21:39.546Z,58.35
2023-03-05T12:24:06.007Z,58.94
2023-03-05T12:26:32.504Z,58.11
2023-03-05T12:28:58.949Z,58.39
2023-03-05T12:31:25.493Z,59.48
2023-03-05T12:33:51.989Z,59.40
2023-03-05T12:36:18.415Z,58.89
2023-03-05T12:38:45.158Z,58.95
2023-03-05T12:41:11.619Z,58.98
2023-03-05T12:43:38.067Z,59.34
2023-03-05T12:46:04.444Z,59.57
2023-03-05T12:48:30.932Z,58.96
2023-03-05T12:50:57.377Z,59.55
2023-03-05T12:53:23.891Z,60.30
2023-03-05T12:55:50.361Z,59.78
2023-03-05T12:58:16.803Z,59.48
2023-03-05T13:00:43.230Z,59.67
2023-03-05T13:03:09.621Z,59.37
2023-03-05T13:05:36.041Z,58.70
2023-03-05T13:08:02.449Z,59.04
2023-03-05T13:10:28.890Z,59.28
2023-03-05T13:12:55.310Z,59.96
2023-03-05T13:15:21.866Z,58.80
2023-03-05T13:17:48.272Z,58.87
2023-03-05T13:20:14.744Z,58.78
2023-03-05T13:22:41.257Z,59.20
2023-03-05T13:25:07.681Z,59.22
2023-03-05T13:27:34.112Z,59.19
2023-03-05T13:30:00.597Z,59.27
2023-03-05T13:32:27.062Z,58.85
2023-03-05T13:34:53.485Z,59.56
2023-03-05T13:37:19.958Z,58.89
2023-03-05T13:39:46.408Z,59.49
2023-03-05T13:42:12.837Z,59.14
2023-03-05T13:44:39.475Z,58.99
2023-03-05T13:47:05.915Z,59.00
2023-03-05T13:49:32.610Z,59.00
2023-03-05T13:51:59.011Z,59.19
2023-03-05T13:54:25.528Z,59.19
2023-03-05T13:56:51.949Z,60.83
2023-03-05T13:59:22.364Z,60.90
2023-03-05T14:01:48.819Z,60.49
2023-03-05T14:04:15.618Z,59.95
2023-03-05T14:06:42.113Z,59.85
2023-03-05T14:09:08.644Z,59.21
2023-03-05T14:11:35.144Z,58.90
2023-03-05T14:14:01.728Z,58.76
2023-03-05T14:16:28.271Z,59.66
2023-03-05T14:18:54.857Z,59.16
2023-03-05T14:21:21.331Z,58.19
2023-03-05T14:23:47.853Z,58.20
2023-03-05T14:26:14.467Z,57.24
2023-03-05T14:28:40.885Z,56.61
2023-03-05T14:31:08.624Z,55.18
2023-03-05T14:33:35.127Z,55.66
2023-03-05T14:36:01.724Z,54.62
2023-03-05T14:38:31.133Z,54.79
2023-03-05T14:40:57.587Z,54.29
2023-03-05T14:43:24.056Z,55.26
2023-03-05T14:45:50.607Z,56.17
2023-03-05T14:48:17.036Z,57.52
2023-03-05T14:50:43.453Z,55.38
2023-03-05T14:53:09.944Z,55.51
2023-03-05T14:55:36.408Z,54.93
2023-03-05T14:58:02.899Z,52.90
2023-03-05T15:00:29.383Z,52.96
2023-03-05T15:02:55.919Z,52.22
2023-03-05T15:05:22.423Z,52.48
2023-03-05T15:07:49.037Z,52.07
2023-03-05T15:10:15.485Z,51.48
2023-03-05T15:12:41.921Z,50.01
2023-03-05T15:15:08.410Z,50.34
2023-03-05T15:17:39.312Z,50.67
2023-03-05T15:20:05.773Z,50.50
2023-03-05T15:22:32.266Z,50.57
2023-03-05T15:24:58.721Z,50.54
2023-03-05T15:27:25.332Z,50.46
2023-03-05T15:29:51.803Z,50.69
2023-03-05T15:32:18.404Z,51.17
2023-03-05T15:34:44.948Z,51.77
2023-03-05T15:37:11.425Z,50.98
2023-03-05T15:39:37.815Z,50.93
2023-03-05T15:42:06.324Z,51.39
2023-03-05T15:44:32.949Z,51.26
2023-03-05T15:46:59.593Z,50.77
2023-03-05T15:49:26.023Z,51.21
2023-03-05T15:51:52.666Z,50.69
2023-03-05T15:54:19.067Z,49.91
2023-03-05T15:56:45.515Z,50.96
2023-03-05T15:59:11.950Z,51.70
2023-03-05T16:01:38.435Z,52.72
2023-03-05T16:04:04.900Z,53.13
2023-03-05T16:06:31.487Z,54.04
2023-03-05T16:08:57.886Z,54.36
2023-03-05T16:11:24.351Z,54.30
2023-03-05T16:13:50.766Z,53.78
2023-03-05T16:16:17.432Z,54.45
2023-03-05T16:18:43.966Z,53.95
2023-03-05T16:21:10.356Z,54.33
2023-03-05T16:23:39.366Z,55.04
2023-03-05T16:26:05.834Z,55.78
2023-03-05T16:28:32.228Z,56.38
2023-03-05T16:30:58.673Z,55.58
2023-03-05T16:33:25.081Z,54.96
2023-03-05T16:35:51.525Z,51.80
2023-03-05T16:38:17.927Z,50.27
2023-03-05T16:41:06.969Z,47.81
2023-03-05T16:43:30.887Z,45.90
2023-03-05T16:45:57.259Z,44.79
2023-03-05T16:48:23.694Z,44.18
2023-03-05T16:50:50.122Z,43.69
2023-03-05T16:53:16.667Z,43.87
2023-03-05T16:55:43.074Z,43.94
2023-03-05T16:58:09.547Z,44.12
2023-03-05T17:00:35.996Z,45.22
2023-03-05T17:03:02.446Z,45.15
2023-03-05T17:05:28.943Z,45.92
2023-03-05T17:07:55.739Z,47.41
2023-03-05T17:10:22.381Z,49.36
2023-03-05T17:12:48.815Z,50.84
2023-03-05T17:15:15.262Z,52.00
2023-03-05T17:17:41.711Z,52.38
2023-03-05T17:20:08.138Z,54.10
2023-03-05T17:22:34.564Z,55.07
2023-03-05T17:25:00.984Z,55.06
2023-03-05T17:27:27.495Z,55.92
2023-03-05T17:29:54.048Z,56.24
2023-03-05T17:32:20.422Z,57.04
2023-03-05T17:34:46.947Z,56.90
2023-03-05T17:37:13.424Z,57.36
2023-03-05T17:39:39.943Z,57.34
2023-03-05T17:42:06.414Z,58.08
2023-03-05T17:44:32.856Z,58.09
2023-03-05T17:47:02.160Z,57.83
2023-03-05T17:49:28.739Z,58.04
2023-03-05T17:51:56.724Z,58.45
2023-03-05T17:54:23.176Z,58.83
2023-03-05T17:56:49.680Z,58.80
2023-03-05T17:59:17.278Z,59.04
2023-03-05T18:01:43.714Z,58.96
2023-03-05T18:04:11.490Z,59.06
2023-03-05T18:06:38.046Z,58.92
2023-03-05T18:09:04.469Z,58.94
2023-03-05T18:11:30.903Z,58.56
2023-03-05T18:14:00.321Z,58.88
2023-03-05T18:16:33.931Z,58.47
2023-03-05T18:19:00.423Z,58.46
2023-03-05T18:21:27.708Z,58.44
2023-03-05T18:23:54.274Z,58.58
2023-03-05T18:26:20.672Z,58.88
2023-03-05T18:28:47.084Z,58.22
2023-03-05T18:31:13.543Z,58.06
2023-03-05T18:33:40.010Z,58.20
2023-03-05T18:36:06.449Z,58.29
2023-03-05T18:38:33.023Z,58.56
2023-03-05T18:40:59.495Z,58.16
2023-03-05T18:43:25.953Z,58.24
2023-03-05T18:45:52.468Z,58.16
2023-03-05T18:48:18.955Z,58.28
2023-03-05T18:50:45.400Z,57.66
2023-03-05T18:53:11.786Z,57.46
2023-03-05T18:55:38.282Z,57.90
2023-03-05T18:58:06.868Z,58.06
2023-03-05T19:00:33.296Z,58.84
2023-03-05T19:02:59.742Z,59.19
2023-03-05T19:05:26.261Z,59.99
2023-03-05T19:07:52.718Z,59.67
2023-03-05T19:10:19.172Z,59.99
2023-03-05T19:12:45.616Z,60.38
2023-03-05T19:15:12.057Z,60.60
2023-03-05T19:17:38.519Z,59.52
2023-03-05T19:20:04.939Z,59.27
2023-03-05T19:22:31.425Z,59.16
2023-03-05T19:24:57.773Z,58.69
2023-03-05T19:27:24.235Z,57.78
2023-03-05T19:29:50.638Z,56.92
2023-03-05T19:32:17.326Z,55.36
2023-03-05T19:34:43.802Z,54.26
2023-03-05T19:37:10.235Z,54.06
2023-03-05T19:39:36.673Z,53.20
2023-03-05T19:42:03.093Z,52.67
2023-03-05T19:44:29.458Z,52.31
2023-03-05T19:46:55.878Z,52.12
2023-03-05T19:49:22.244Z,51.49
2023-03-05T19:51:48.611Z,51.18
2023-03-05T19:54:15.048Z,51.52
2023-03-05T19:56:41.460Z,51.11
2023-03-05T19:59:07.917Z,51.53
2023-03-05T20:01:34.366Z,51.44
2023-03-05T20:04:00.839Z,51.17
2023-03-05T20:06:27.217Z,50.71
2023-03-05T20:08:53.581Z,51.10
2023-03-05T20:11:20.079Z,50.49
2023-03-05T20:13:46.528Z,52.86
2023-03-05T20:16:13.065Z,55.36
2023-03-05T20:18:39.493Z,56.04
2023-03-05T20:21:05.883Z,56.24
2023-03-05T20:23:32.317Z,56.04
2023-03-05T20:25:58.734Z,56.77
2023-03-05T20:28:25.179Z,57.47
2023-03-05T20:30:51.550Z,57.58
2023-03-05T20:33:17.942Z,58.19
2023-03-05T20:35:44.329Z,58.70
2023-03-05T20:38:13.102Z,58.55
2023-03-05T20:40:39.545Z,58.97
2023-03-05T20:43:05.988Z,59.23
2023-03-05T20:45:32.449Z,58.52
2023-03-05T20:47:58.881Z,58.93
2023-03-05T20:50:25.289Z,59.02
2023-03-05T20:52:51.712Z,59.86
2023-03-05T20:55:18.141Z,59.96
2023-03-05T20:57:44.566Z,60.58
2023-03-05T21:00:10.929Z,60.10
2023-03-05T21:02:37.327Z,59.88
2023-03-05T21:05:03.738Z,59.22
2023-03-05T21:07:30.233Z,59.42
2023-03-05T21:09:56.746Z,59.59
2023-03-05T21:12:23.198Z,59.44
2023-03-05T21:14:49.600Z,58.59
2023-03-05T21:17:15.925Z,58.55
2023-03-05T21:19:42.283Z,58.10
2023-03-05T21:22:08.713Z,58.42
2023-03-05T21:24:35.277Z,58.31
2023-03-05T21:27:01.979Z,58.35
2023-03-05T21:29:28.435Z,58.23
2023-03-05T21:31:54.982Z,58.74
2023-03-05T21:34:21.485Z,58.73
2023-03-05T21:36:47.930Z,58.75
2023-03-05T21:39:14.501Z,58.27
2023-03-05T21:41:41.034Z,58.45
2023-03-05T21:44:07.425Z,58.14
2023-03-05T21:46:33.792Z,57.46
2023-03-05T21:49:00.395Z,57.42
2023-03-05T21:51:26.795Z,56.74
2023-03-05T21:53:53.151Z,56.32
2023-03-05T21:56:19.695Z,55.63
2023-03-05T21:58:46.141Z,55.05
2023-03-05T22:01:12.665Z,55.27
2023-03-05T22:03:39.336Z,55.67
2023-03-05T22:06:05.862Z,55.99
2023-03-05T22:08:32.399Z,55.67
2023-03-05T22:10:59.384Z,55.87
2023-03-05T22:13:25.870Z,55.40
2023-03-05T22:15:52.399Z,54.79
2023-03-05T22:18:18.899Z,54.67
2023-03-05T22:20:48.530Z,54.39
2023-03-05T22:23:14.933Z,54.47
2023-03-05T22:25:44.048Z,53.39
2023-03-05T22:28:13.533Z,53.21
2023-03-05T22:30:41.699Z,52.74
2023-03-05T22:33:08.239Z,53.72
2023-03-05T22:35:34.742Z,53.34
2023-03-05T22:38:01.149Z,53.31
2023-03-05T22:40:27.758Z,53.05
2023-03-05T22:42:56.442Z,53.14
2023-03-05T22:45:24.779Z,53.12
2023-03-05T22:47:51.258Z,53.21
2023-03-05T22:50:17.692Z,53.24
2023-03-05T22:52:45.557Z,52.70
2023-03-05T22:55:12.072Z,52.66
2023-03-05T22:57:38.548Z,53.55
2023-03-05T23:00:08.170Z,53.48
2023-03-05T23:02:34.685Z,53.99
2023-03-05T23:05:01.098Z,54.55
2023-03-05T23:07:27.670Z,55.74
2023-03-05T23:09:54.133Z,56.23
2023-03-05T23:12:20.599Z,57.20
2023-03-05T23:14:48.113Z,57.86
2023-03-05T23:17:14.541Z,58.80
2023-03-05T23:19:40.942Z,59.24
2023-03-05T23:22:07.382Z,59.50
2023-03-05T23:24:33.792Z,59.76
2023-03-05T23:27:00.241Z,59.04
2023-03-05T23:29:26.821Z,59.11
2023-03-05T23:31:53.258Z,58.92
2023-03-05T23:34:19.860Z,58.89
2023-03-05T23:36:46.244Z,60.12
2023-03-05T23:39:12.718Z,60.57
2023-03-05T23:41:39.158Z,59.93
2023-03-05T23:44:05.593Z,59.11
2023-03-05T23:46:32.039Z,58.60
2023-03-05T23:48:58.582Z,58.56
2023-03-05T23:51:24.995Z,56.98
2023-03-05T23:53:51.541Z,56.12
2023-03-05T23:56:18.043Z,56.13
2023-03-05T23:58:44.480Z,56.02
